sensor_id;sensor_type;location;lat;lon;timestamp;pressure;altitude;pressure_sealevel;temperature
48628;BMP280;34424;52.234;6.500;2022-07-29T00:02:34;147640.28;;;15.13
48628;BMP280;34424;52.234;6.500;2022-07-29T00:07:36;147639.03;;;15.12
48628;BMP280;34424;52.234;6.500;2022-07-29T00:12:39;147642.75;;;15.14
48628;BMP280;34424;52.234;6.500;2022-07-29T00:17:43;147649.00;;;15.16
48628;BMP280;34424;52.234;6.500;2022-07-29T00:22:45;147652.72;;;15.18
48628;BMP280;34424;52.234;6.500;2022-07-29T00:27:48;147657.69;;;15.20
48628;BMP280;34424;52.234;6.500;2022-07-29T00:32:52;147655.22;;;15.19
48628;BMP280;34424;52.234;6.500;2022-07-29T00:37:55;147668.88;;;15.24
48628;BMP280;34424;52.234;6.500;2022-07-29T00:42:57;147668.88;;;15.24
48628;BMP280;34424;52.234;6.500;2022-07-29T00:48:01;147657.69;;;15.20
48628;BMP280;34424;52.234;6.500;2022-07-29T00:53:06;147647.75;;;15.16
48628;BMP280;34424;52.234;6.500;2022-07-29T00:58:11;147629.09;;;15.08
48628;BMP280;34424;52.234;6.500;2022-07-29T01:03:18;147620.41;;;15.04
48628;BMP280;34424;52.234;6.500;2022-07-29T01:08:21;147605.53;;;14.98
48628;BMP280;34424;52.234;6.500;2022-07-29T01:13:25;147601.78;;;14.97
48628;BMP280;34424;52.234;6.500;2022-07-29T01:18:31;147584.38;;;14.90
48628;BMP280;34424;52.234;6.500;2022-07-29T01:23:52;147580.66;;;14.88
48628;BMP280;34424;52.234;6.500;2022-07-29T01:29:05;147568.25;;;14.83
48628;BMP280;34424;52.234;6.500;2022-07-29T01:34:11;147562.03;;;14.81
48628;BMP280;34424;52.234;6.500;2022-07-29T01:39:19;147544.66;;;14.73
48628;BMP280;34424;52.234;6.500;2022-07-29T01:44:30;147538.47;;;14.71
48628;BMP280;34424;52.234;6.500;2022-07-29T01:49:36;147526.00;;;14.66
48628;BMP280;34424;52.234;6.500;2022-07-29T01:54:43;147518.56;;;14.63
48628;BMP280;34424;52.234;6.500;2022-07-29T01:59:50;147511.09;;;14.60
48628;BMP280;34424;52.234;6.500;2022-07-29T02:04:54;147503.66;;;14.57
48628;BMP280;34424;52.234;6.500;2022-07-29T02:09:58;147492.50;;;14.52
48628;BMP280;34424;52.234;6.500;2022-07-29T02:15:06;147488.78;;;14.51
48628;BMP280;34424;52.234;6.500;2022-07-29T02:20:12;147481.34;;;14.48
48628;BMP280;34424;52.234;6.500;2022-07-29T02:25:15;147477.63;;;14.46
48628;BMP280;34424;52.234;6.500;2022-07-29T02:30:21;147473.88;;;14.45
48628;BMP280;34424;52.234;6.500;2022-07-29T02:35:25;147461.38;;;14.39
48628;BMP280;34424;52.234;6.500;2022-07-29T02:40:37;147455.19;;;14.37
48628;BMP280;34424;52.234;6.500;2022-07-29T02:45:42;147446.50;;;14.33
48628;BMP280;34424;52.234;6.500;2022-07-29T02:50:50;147431.63;;;14.27
48628;BMP280;34424;52.234;6.500;2022-07-29T02:55:56;147425.41;;;14.25
48628;BMP280;34424;52.234;6.500;2022-07-29T03:01:02;147421.69;;;14.23
48628;BMP280;34424;52.234;6.500;2022-07-29T03:06:07;147413.00;;;14.20
48628;BMP280;34424;52.234;6.500;2022-07-29T03:11:30;147410.47;;;14.19
48628;BMP280;34424;52.234;6.500;2022-07-29T03:16:51;147405.53;;;14.17
48628;BMP280;34424;52.234;6.500;2022-07-29T03:21:56;147396.84;;;14.13
48628;BMP280;34424;52.234;6.500;2022-07-29T03:26:59;147391.88;;;14.11
48628;BMP280;34424;52.234;6.500;2022-07-29T03:32:05;147386.91;;;14.09
48628;BMP280;34424;52.234;6.500;2022-07-29T03:37:09;147386.91;;;14.09
48628;BMP280;34424;52.234;6.500;2022-07-29T03:42:13;147400.56;;;14.14
48628;BMP280;34424;52.234;6.500;2022-07-29T03:47:25;147399.31;;;14.14
48628;BMP280;34424;52.234;6.500;2022-07-29T03:52:49;147383.19;;;14.07
48628;BMP280;34424;52.234;6.500;2022-07-29T03:57:52;147362.09;;;13.99
48628;BMP280;34424;52.234;6.500;2022-07-29T04:02:57;147339.75;;;13.90
48628;BMP280;34424;52.234;6.500;2022-07-29T04:08:00;147329.81;;;13.86
48628;BMP280;34424;52.234;6.500;2022-07-29T04:13:02;147317.41;;;13.80
48628;BMP280;34424;52.234;6.500;2022-07-29T04:18:06;147316.19;;;13.80
48628;BMP280;34424;52.234;6.500;2022-07-29T04:23:09;147323.63;;;13.83
48628;BMP280;34424;52.234;6.500;2022-07-29T04:28:11;147328.56;;;13.85
48628;BMP280;34424;52.234;6.500;2022-07-29T04:33:18;147333.53;;;13.87
48628;BMP280;34424;52.234;6.500;2022-07-29T04:38:21;147343.47;;;13.91
48628;BMP280;34424;52.234;6.500;2022-07-29T04:43:24;147344.69;;;13.92
48628;BMP280;34424;52.234;6.500;2022-07-29T04:48:28;147357.16;;;13.97
48628;BMP280;34424;52.234;6.500;2022-07-29T04:53:31;147355.91;;;13.96
48628;BMP280;34424;52.234;6.500;2022-07-29T04:58:34;147360.88;;;13.98
48628;BMP280;34424;52.234;6.500;2022-07-29T05:03:38;147365.81;;;14.00
48628;BMP280;34424;52.234;6.500;2022-07-29T05:08:41;147379.47;;;14.06
48628;BMP280;34424;52.234;6.500;2022-07-29T05:13:43;147404.28;;;14.16
48628;BMP280;34424;52.234;6.500;2022-07-29T05:18:48;147432.84;;;14.28
48628;BMP280;34424;52.234;6.500;2022-07-29T05:23:51;147450.22;;;14.35
48628;BMP280;34424;52.234;6.500;2022-07-29T05:28:53;147462.63;;;14.40
48628;BMP280;34424;52.234;6.500;2022-07-29T05:33:57;147471.41;;;14.43
48628;BMP280;34424;52.234;6.500;2022-07-29T05:39:00;147491.25;;;14.52
48628;BMP280;34424;52.234;6.500;2022-07-29T05:44:03;147466.34;;;14.41
48628;BMP280;34424;52.234;6.500;2022-07-29T05:49:07;147453.94;;;14.36
48628;BMP280;34424;52.234;6.500;2022-07-29T05:54:09;147401.78;;;14.15
48628;BMP280;34424;52.234;6.500;2022-07-29T05:59:12;147309.97;;;13.77
48628;BMP280;34424;52.234;6.500;2022-07-29T06:04:20;147193.34;;;13.30
48628;BMP280;34424;52.234;6.500;2022-07-29T06:09:22;147132.50;;;13.05
48628;BMP280;34424;52.234;6.500;2022-07-29T06:14:25;147133.75;;;13.05
48628;BMP280;34424;52.234;6.500;2022-07-29T06:19:30;147158.53;;;13.15
48628;BMP280;34424;52.234;6.500;2022-07-29T06:24:33;147182.19;;;13.25
48628;BMP280;34424;52.234;6.500;2022-07-29T06:29:36;147224.34;;;13.42
48628;BMP280;34424;52.234;6.500;2022-07-29T06:34:40;147277.69;;;13.64
48628;BMP280;34424;52.234;6.500;2022-07-29T06:39:46;147307.50;;;13.76
48628;BMP280;34424;52.234;6.500;2022-07-29T06:44:49;147327.34;;;13.85
48628;BMP280;34424;52.234;6.500;2022-07-29T06:49:53;147318.66;;;13.81
48628;BMP280;34424;52.234;6.500;2022-07-29T06:54:55;147343.47;;;13.91
48628;BMP280;34424;52.234;6.500;2022-07-29T06:59:58;147391.88;;;14.11
48628;BMP280;34424;52.234;6.500;2022-07-29T07:05:02;147404.28;;;14.16
48628;BMP280;34424;52.234;6.500;2022-07-29T07:10:07;147481.34;;;14.48
48628;BMP280;34424;52.234;6.500;2022-07-29T07:15:10;147506.16;;;14.58
48628;BMP280;34424;52.234;6.500;2022-07-29T07:20:14;147558.31;;;14.79
48628;BMP280;34424;52.234;6.500;2022-07-29T07:25:17;147640.28;;;15.13
48628;BMP280;34424;52.234;6.500;2022-07-29T07:30:19;147703.69;;;15.39
48628;BMP280;34424;52.234;6.500;2022-07-29T07:35:23;147732.22;;;15.50
48628;BMP280;34424;52.234;6.500;2022-07-29T07:40:27;147727.25;;;15.48
48628;BMP280;34424;52.234;6.500;2022-07-29T07:45:30;147747.13;;;15.56
48628;BMP280;34424;52.234;6.500;2022-07-29T07:50:36;147696.19;;;15.35
48628;BMP280;34424;52.234;6.500;2022-07-29T07:55:39;147683.75;;;15.30
48628;BMP280;34424;52.234;6.500;2022-07-29T08:01:02;147652.72;;;15.18
48628;BMP280;34424;52.234;6.500;2022-07-29T08:06:07;147699.91;;;15.37
48628;BMP280;34424;52.234;6.500;2022-07-29T08:11:09;147709.88;;;15.41
48628;BMP280;34424;52.234;6.500;2022-07-29T08:16:12;147711.13;;;15.42
48628;BMP280;34424;52.234;6.500;2022-07-29T08:21:18;147707.41;;;15.40
48628;BMP280;34424;52.234;6.500;2022-07-29T08:26:20;147718.56;;;15.45
48628;BMP280;34424;52.234;6.500;2022-07-29T08:31:23;147671.34;;;15.25
48628;BMP280;34424;52.234;6.500;2022-07-29T08:36:28;147642.75;;;15.14
48628;BMP280;34424;52.234;6.500;2022-07-29T08:41:30;147680.03;;;15.29
48628;BMP280;34424;52.234;6.500;2022-07-29T08:46:33;147673.84;;;15.26
48628;BMP280;34424;52.234;6.500;2022-07-29T08:51:37;147692.44;;;15.34
48628;BMP280;34424;52.234;6.500;2022-07-29T08:56:50;147718.56;;;15.45
48628;BMP280;34424;52.234;6.500;2022-07-29T09:01:57;147733.47;;;15.51
48628;BMP280;34424;52.234;6.500;2022-07-29T09:07:04;147729.75;;;15.49
48628;BMP280;34424;52.234;6.500;2022-07-29T09:12:07;147732.22;;;15.50
48628;BMP280;34424;52.234;6.500;2022-07-29T09:17:09;147743.41;;;15.55
48628;BMP280;34424;52.234;6.500;2022-07-29T09:22:28;147774.53;;;15.68
48628;BMP280;34424;52.234;6.500;2022-07-29T09:27:31;147764.59;;;15.63
48628;BMP280;34424;52.234;6.500;2022-07-29T09:32:54;147784.47;;;15.72
48628;BMP280;34424;52.234;6.500;2022-07-29T09:38:09;147816.75;;;15.85
48628;BMP280;34424;52.234;6.500;2022-07-29T09:43:13;147860.28;;;16.03
48628;BMP280;34424;52.234;6.500;2022-07-29T09:48:17;147910.00;;;16.23
48628;BMP280;34424;52.234;6.500;2022-07-29T09:53:31;147972.16;;;16.48
48628;BMP280;34424;52.234;6.500;2022-07-29T09:58:34;148035.63;;;16.74
48628;BMP280;34424;52.234;6.500;2022-07-29T10:03:50;148087.88;;;16.96
48628;BMP280;34424;52.234;6.500;2022-07-29T10:08:54;148146.34;;;17.19
48628;BMP280;34424;52.234;6.500;2022-07-29T10:13:57;148179.94;;;17.33
48628;BMP280;34424;52.234;6.500;2022-07-29T10:19:00;148242.16;;;17.59
48628;BMP280;34424;52.234;6.500;2022-07-29T10:24:06;148260.81;;;17.66
48628;BMP280;34424;52.234;6.500;2022-07-29T10:29:15;148244.66;;;17.60
48628;BMP280;34424;52.234;6.500;2022-07-29T10:34:23;148292.00;;;17.79
48628;BMP280;34424;52.234;6.500;2022-07-29T10:39:42;148409.00;;;18.27
48628;BMP280;34424;52.234;6.500;2022-07-29T10:44:53;148498.69;;;18.63
48628;BMP280;34424;52.234;6.500;2022-07-29T10:49:58;148565.91;;;18.91
48628;BMP280;34424;52.234;6.500;2022-07-29T10:55:04;148633.22;;;19.18
48628;BMP280;34424;52.234;6.500;2022-07-29T11:00:26;148989.78;;;20.64
48628;BMP280;34424;52.234;6.500;2022-07-29T11:05:29;149538.94;;;22.87
48628;BMP280;34424;52.234;6.500;2022-07-29T11:10:42;149996.34;;;24.73
48628;BMP280;34424;52.234;6.500;2022-07-29T11:15:53;150152.72;;;25.37
48628;BMP280;34424;52.234;6.500;2022-07-29T11:20:56;149768.81;;;23.81
48628;BMP280;34424;52.234;6.500;2022-07-29T11:26:19;149985.09;;;24.69
48628;BMP280;34424;52.234;6.500;2022-07-29T11:31:34;149935.09;;;24.48
48628;BMP280;34424;52.234;6.500;2022-07-29T11:42:42;149846.28;;;24.12
48628;BMP280;34424;52.234;6.500;2022-07-29T11:47:50;149878.78;;;24.26
48628;BMP280;34424;52.234;6.500;2022-07-29T11:52:53;150155.22;;;25.38
48628;BMP280;34424;52.234;6.500;2022-07-29T11:57:59;150339.13;;;26.13
48628;BMP280;34424;52.234;6.500;2022-07-29T12:03:06;150439.31;;;26.53
48628;BMP280;34424;52.234;6.500;2022-07-29T12:08:12;150567.03;;;27.05
48628;BMP280;34424;52.234;6.500;2022-07-29T12:13:19;150599.53;;;27.18
48628;BMP280;34424;52.234;6.500;2022-07-29T12:18:22;150712.28;;;27.64
48628;BMP280;34424;52.234;6.500;2022-07-29T12:23:25;150865.16;;;28.26
48628;BMP280;34424;52.234;6.500;2022-07-29T12:28:38;150897.75;;;28.39
48628;BMP280;34424;52.234;6.500;2022-07-29T12:33:41;150733.59;;;27.73
48628;BMP280;34424;52.234;6.500;2022-07-29T12:38:44;150672.22;;;27.48
48628;BMP280;34424;52.234;6.500;2022-07-29T12:43:54;150747.38;;;27.78
48628;BMP280;34424;52.234;6.500;2022-07-29T12:48:57;150698.47;;;27.59
48628;BMP280;34424;52.234;6.500;2022-07-29T12:54:05;150434.31;;;26.51
48628;BMP280;34424;52.234;6.500;2022-07-29T12:59:14;150370.41;;;26.25
48628;BMP280;34424;52.234;6.500;2022-07-29T13:04:24;150653.38;;;27.40
48628;BMP280;34424;52.234;6.500;2022-07-29T13:09:36;150550.72;;;26.99
48628;BMP280;34424;52.234;6.500;2022-07-29T13:14:42;150649.63;;;27.39
48628;BMP280;34424;52.234;6.500;2022-07-29T13:19:49;150680.97;;;27.51
48628;BMP280;34424;52.234;6.500;2022-07-29T13:24:53;150752.38;;;27.80
48628;BMP280;34424;52.234;6.500;2022-07-29T13:29:59;150907.78;;;28.43
48628;BMP280;34424;52.234;6.500;2022-07-29T13:35:05;150810.00;;;28.04
48628;BMP280;34424;52.234;6.500;2022-07-29T13:40:09;150687.22;;;27.54
48628;BMP280;34424;52.234;6.500;2022-07-29T13:45:13;150788.72;;;27.95
48628;BMP280;34424;52.234;6.500;2022-07-29T13:50:16;150759.91;;;27.83
48628;BMP280;34424;52.234;6.500;2022-07-29T13:55:19;150910.28;;;28.45
48628;BMP280;34424;52.234;6.500;2022-07-29T14:00:23;151004.22;;;28.83
48628;BMP280;34424;52.234;6.500;2022-07-29T14:05:25;151005.47;;;28.83
48628;BMP280;34424;52.234;6.500;2022-07-29T14:10:28;150886.44;;;28.35
48628;BMP280;34424;52.234;6.500;2022-07-29T14:15:32;150896.47;;;28.39
48628;BMP280;34424;52.234;6.500;2022-07-29T14:20:39;151048.16;;;29.00
48628;BMP280;34424;52.234;6.500;2022-07-29T14:25:42;150937.81;;;28.56
48628;BMP280;34424;52.234;6.500;2022-07-29T14:30:46;150817.50;;;28.07
48628;BMP280;34424;52.234;6.500;2022-07-29T14:35:49;150827.53;;;28.11
48628;BMP280;34424;52.234;6.500;2022-07-29T14:40:52;150633.38;;;27.32
48628;BMP280;34424;52.234;6.500;2022-07-29T14:45:55;150534.41;;;26.92
48628;BMP280;34424;52.234;6.500;2022-07-29T14:51:05;150319.13;;;26.05
48628;BMP280;34424;52.234;6.500;2022-07-29T14:56:08;150509.38;;;26.82
48628;BMP280;34424;52.234;6.500;2022-07-29T15:01:31;150618.34;;;27.26
48628;BMP280;34424;52.234;6.500;2022-07-29T15:06:34;150649.63;;;27.39
48628;BMP280;34424;52.234;6.500;2022-07-29T15:11:37;150690.97;;;27.56
48628;BMP280;34424;52.234;6.500;2022-07-29T15:16:41;150771.16;;;27.88
48628;BMP280;34424;52.234;6.500;2022-07-29T15:21:48;150655.88;;;27.41
48628;BMP280;34424;52.234;6.500;2022-07-29T15:26:51;150731.09;;;27.72
48628;BMP280;34424;52.234;6.500;2022-07-29T15:31:55;150614.59;;;27.25
48628;BMP280;34424;52.234;6.500;2022-07-29T15:36:58;150748.63;;;27.79
48628;BMP280;34424;52.234;6.500;2022-07-29T15:42:02;150807.50;;;28.03
48628;BMP280;34424;52.234;6.500;2022-07-29T15:47:06;150927.81;;;28.52
48628;BMP280;34424;52.234;6.500;2022-07-29T15:52:09;150863.91;;;28.26
48628;BMP280;34424;52.234;6.500;2022-07-29T15:57:12;150922.81;;;28.50
48628;BMP280;34424;52.234;6.500;2022-07-29T16:02:16;150925.31;;;28.51
48628;BMP280;34424;52.234;6.500;2022-07-29T16:07:19;150927.81;;;28.52
48628;BMP280;34424;52.234;6.500;2022-07-29T16:12:22;150991.72;;;28.78
48628;BMP280;34424;52.234;6.500;2022-07-29T16:17:26;151005.47;;;28.83
48628;BMP280;34424;52.234;6.500;2022-07-29T16:22:29;150995.47;;;28.79
48628;BMP280;34424;52.234;6.500;2022-07-29T16:27:31;150985.44;;;28.75
48628;BMP280;34424;52.234;6.500;2022-07-29T16:32:40;150950.34;;;28.61
48628;BMP280;34424;52.234;6.500;2022-07-29T16:37:42;151053.16;;;29.02
48628;BMP280;34424;52.234;6.500;2022-07-29T16:42:45;150886.44;;;28.35
48628;BMP280;34424;52.234;6.500;2022-07-29T16:47:49;150823.78;;;28.09
48628;BMP280;34424;52.234;6.500;2022-07-29T16:52:53;150695.97;;;27.58
48628;BMP280;34424;52.234;6.500;2022-07-29T16:57:55;150647.13;;;27.38
48628;BMP280;34424;52.234;6.500;2022-07-29T17:02:59;150674.69;;;27.49
48628;BMP280;34424;52.234;6.500;2022-07-29T17:08:02;150712.28;;;27.64
48628;BMP280;34424;52.234;6.500;2022-07-29T17:13:04;150677.22;;;27.50
48628;BMP280;34424;52.234;6.500;2022-07-29T17:18:11;150645.88;;;27.37
48628;BMP280;34424;52.234;6.500;2022-07-29T17:23:14;150562.03;;;27.03
48628;BMP280;34424;52.234;6.500;2022-07-29T17:28:16;150509.38;;;26.82
48628;BMP280;34424;52.234;6.500;2022-07-29T17:33:20;150456.81;;;26.60
48628;BMP280;34424;52.234;6.500;2022-07-29T17:38:23;150404.25;;;26.39
48628;BMP280;34424;52.234;6.500;2022-07-29T17:43:25;150309.09;;;26.00
48628;BMP280;34424;52.234;6.500;2022-07-29T17:48:29;150405.50;;;26.40
48628;BMP280;34424;52.234;6.500;2022-07-29T17:53:32;150329.13;;;26.09
48628;BMP280;34424;52.234;6.500;2022-07-29T17:58:34;150143.97;;;25.33
48628;BMP280;34424;52.234;6.500;2022-07-29T18:03:39;149977.59;;;24.66
48628;BMP280;34424;52.234;6.500;2022-07-29T18:08:42;149831.28;;;24.06
48628;BMP280;34424;52.234;6.500;2022-07-29T18:13:47;149750.09;;;23.73
48628;BMP280;34424;52.234;6.500;2022-07-29T18:18:51;149690.09;;;23.49
48628;BMP280;34424;52.234;6.500;2022-07-29T18:23:54;149635.13;;;23.26
48628;BMP280;34424;52.234;6.500;2022-07-29T18:28:56;149578.91;;;23.04
48628;BMP280;34424;52.234;6.500;2022-07-29T18:39:03;149447.78;;;22.50
48628;BMP280;34424;52.234;6.500;2022-07-29T18:44:05;149387.84;;;22.26
48628;BMP280;34424;52.234;6.500;2022-07-29T18:49:11;149344.16;;;22.08
48628;BMP280;34424;52.234;6.500;2022-07-29T18:54:15;149301.66;;;21.91
48628;BMP280;34424;52.234;6.500;2022-07-29T18:59:18;149248.00;;;21.69
48628;BMP280;34424;52.234;6.500;2022-07-29T19:04:23;149181.88;;;21.42
48628;BMP280;34424;52.234;6.500;2022-07-29T19:09:25;149104.50;;;21.10
48628;BMP280;34424;52.234;6.500;2022-07-29T19:14:28;149032.13;;;20.81
48628;BMP280;34424;52.234;6.500;2022-07-29T19:19:32;148947.34;;;20.46
48628;BMP280;34424;52.234;6.500;2022-07-29T19:24:34;148857.53;;;20.10
48628;BMP280;34424;52.234;6.500;2022-07-29T19:29:37;148785.25;;;19.80
48628;BMP280;34424;52.234;6.500;2022-07-29T19:34:41;148727.94;;;19.57
48628;BMP280;34424;52.234;6.500;2022-07-29T19:40:05;148660.63;;;19.29
48628;BMP280;34424;52.234;6.500;2022-07-29T19:45:09;148579.66;;;18.96
48628;BMP280;34424;52.234;6.500;2022-07-29T19:50:14;148518.63;;;18.72
48628;BMP280;34424;52.234;6.500;2022-07-29T19:55:16;148460.06;;;18.48
48628;BMP280;34424;52.234;6.500;2022-07-29T20:00:20;148411.50;;;18.28
48628;BMP280;34424;52.234;6.500;2022-07-29T20:05:25;148369.16;;;18.10
48628;BMP280;34424;52.234;6.500;2022-07-29T20:10:28;148348.00;;;18.02
48628;BMP280;34424;52.234;6.500;2022-07-29T20:15:31;148391.53;;;18.20
48628;BMP280;34424;52.234;6.500;2022-07-29T20:20:35;148385.31;;;18.17
48628;BMP280;34424;52.234;6.500;2022-07-29T20:25:38;148377.84;;;18.14
48628;BMP280;34424;52.234;6.500;2022-07-29T20:30:40;148361.69;;;18.07
48628;BMP280;34424;52.234;6.500;2022-07-29T20:35:44;148346.78;;;18.01
48628;BMP280;34424;52.234;6.500;2022-07-29T20:40:47;148329.31;;;17.94
48628;BMP280;34424;52.234;6.500;2022-07-29T20:45:50;148311.91;;;17.87
48628;BMP280;34424;52.234;6.500;2022-07-29T20:50:54;148287.03;;;17.77
48628;BMP280;34424;52.234;6.500;2022-07-29T20:55:57;148254.59;;;17.64
48628;BMP280;34424;52.234;6.500;2022-07-29T21:01:00;148222.22;;;17.50
48628;BMP280;34424;52.234;6.500;2022-07-29T21:06:04;148198.59;;;17.41
48628;BMP280;34424;52.234;6.500;2022-07-29T21:11:08;148162.50;;;17.26
48628;BMP280;34424;52.234;6.500;2022-07-29T21:16:10;148140.13;;;17.17
48628;BMP280;34424;52.234;6.500;2022-07-29T21:21:16;148125.22;;;17.11
48628;BMP280;34424;52.234;6.500;2022-07-29T21:26:19;148086.63;;;16.95
48628;BMP280;34424;52.234;6.500;2022-07-29T21:31:22;148050.59;;;16.80
48628;BMP280;34424;52.234;6.500;2022-07-29T21:36:26;148021.97;;;16.69
48628;BMP280;34424;52.234;6.500;2022-07-29T21:41:48;147990.81;;;16.56
48628;BMP280;34424;52.234;6.500;2022-07-29T21:46:51;147962.22;;;16.44
48628;BMP280;34424;52.234;6.500;2022-07-29T21:51:55;147932.38;;;16.32
48628;BMP280;34424;52.234;6.500;2022-07-29T21:56:58;147939.88;;;16.35
48628;BMP280;34424;52.234;6.500;2022-07-29T22:02:01;147954.78;;;16.41
48628;BMP280;34424;52.234;6.500;2022-07-29T22:07:05;147953.53;;;16.41
48628;BMP280;34424;52.234;6.500;2022-07-29T22:12:08;147944.84;;;16.37
48628;BMP280;34424;52.234;6.500;2022-07-29T22:17:11;147928.66;;;16.31
48628;BMP280;34424;52.234;6.500;2022-07-29T22:22:15;147916.22;;;16.25
48628;BMP280;34424;52.234;6.500;2022-07-29T22:27:18;147895.09;;;16.17
48628;BMP280;34424;52.234;6.500;2022-07-29T22:32:22;147852.81;;;16.00
48628;BMP280;34424;52.234;6.500;2022-07-29T22:37:26;147814.28;;;15.84
48628;BMP280;34424;52.234;6.500;2022-07-29T22:42:29;147795.66;;;15.76
48628;BMP280;34424;52.234;6.500;2022-07-29T22:47:32;147763.38;;;15.63
48628;BMP280;34424;52.234;6.500;2022-07-29T22:52:50;147734.72;;;15.51
48628;BMP280;34424;52.234;6.500;2022-07-29T22:57:52;147713.59;;;15.43
48628;BMP280;34424;52.234;6.500;2022-07-29T23:02:55;147687.50;;;15.32
48628;BMP280;34424;52.234;6.500;2022-07-29T23:07:59;147670.09;;;15.25
48628;BMP280;34424;52.234;6.500;2022-07-29T23:13:01;147652.72;;;15.18
48628;BMP280;34424;52.234;6.500;2022-07-29T23:18:04;147644.03;;;15.14
48628;BMP280;34424;52.234;6.500;2022-07-29T23:23:09;147617.94;;;15.03
48628;BMP280;34424;52.234;6.500;2022-07-29T23:28:11;147601.78;;;14.97
48628;BMP280;34424;52.234;6.500;2022-07-29T23:33:14;147585.63;;;14.90
48628;BMP280;34424;52.234;6.500;2022-07-29T23:38:18;147584.38;;;14.90
48628;BMP280;34424;52.234;6.500;2022-07-29T23:43:20;147570.72;;;14.84
48628;BMP280;34424;52.234;6.500;2022-07-29T23:48:23;147543.41;;;14.73
48628;BMP280;34424;52.234;6.500;2022-07-29T23:53:28;147509.88;;;14.59
48628;BMP280;34424;52.234;6.500;2022-07-29T23:58:31;147486.28;;;14.50
